createdAt,value
2023-01-09T00:00:21.299Z,79.49
2023-01-09T00:05:22.277Z,79.14
2023-01-09T00:10:22.965Z,79.82
2023-01-09T00:15:25.026Z,78.95
2023-01-09T00:20:25.658Z,78.57
2023-01-09T00:25:26.297Z,78.15
2023-01-09T00:30:28.761Z,78.96
2023-01-09T00:35:30.252Z,78.52
2023-01-09T00:40:30.988Z,79.75
2023-01-09T00:45:33.037Z,79.32
2023-01-09T00:50:35.531Z,79.40
2023-01-09T00:55:38.031Z,78.58
2023-01-09T01:00:40.045Z,79.46
2023-01-09T01:05:58.430Z,79.29
2023-01-09T01:10:59.093Z,79.66
2023-01-09T01:16:01.079Z,78.53
2023-01-09T01:21:01.733Z,79.90
2023-01-09T01:26:06.656Z,79.53
2023-01-09T01:31:09.410Z,79.31
2023-01-09T01:36:10.695Z,78.70
2023-01-09T01:41:11.662Z,78.60
2023-01-09T01:46:13.674Z,78.90
2023-01-09T01:51:16.360Z,77.99
2023-01-09T01:56:20.815Z,77.59
2023-01-09T02:01:25.525Z,78.26
2023-01-09T02:06:26.862Z,77.09
2023-01-09T02:11:28.063Z,77.67
2023-01-09T02:16:42.157Z,77.70
2023-01-09T02:21:55.824Z,77.29
2023-01-09T02:27:08.323Z,77.75
2023-01-09T02:32:22.330Z,77.93
2023-01-09T02:37:30.573Z,76.89
2023-01-09T02:42:33.026Z,77.35
2023-01-09T02:47:41.828Z,77.26
2023-01-09T02:53:00.765Z,77.42
2023-01-09T02:58:10.405Z,78.26
2023-01-09T03:03:20.185Z,79.54
2023-01-09T03:08:24.123Z,80.56
2023-01-09T03:13:27.074Z,80.55
2023-01-09T03:18:32.525Z,81.85
2023-01-09T03:23:47.636Z,82.61
2023-01-09T03:28:49.129Z,83.57
2023-01-09T03:33:51.208Z,84.48
2023-01-09T03:38:52.362Z,85.59
2023-01-09T03:43:53.029Z,85.88
2023-01-09T03:48:55.018Z,85.95
2023-01-09T03:53:55.724Z,85.70
2023-01-09T03:58:56.418Z,85.47
2023-01-09T04:03:58.471Z,86.40
2023-01-09T04:08:59.130Z,87.14
2023-01-09T04:13:59.810Z,87.08
2023-01-09T04:19:01.883Z,86.91
2023-01-09T04:24:02.997Z,86.67
2023-01-09T04:29:03.645Z,87.05
2023-01-09T04:34:05.641Z,86.65
2023-01-09T04:39:06.362Z,86.91
2023-01-09T04:44:07.166Z,86.24
2023-01-09T04:49:09.175Z,86.84
2023-01-09T04:54:09.928Z,86.28
2023-01-09T04:59:10.903Z,86.57
2023-01-09T05:04:13.981Z,86.21
2023-01-09T05:09:14.654Z,84.56
2023-01-09T05:14:15.290Z,85.60
2023-01-09T05:19:17.311Z,84.94
2023-01-09T05:24:18.034Z,84.80
2023-01-09T05:29:18.683Z,85.33
2023-01-09T05:34:21.253Z,85.23
2023-01-09T05:39:21.936Z,85.01
2023-01-09T05:44:22.649Z,83.98
2023-01-09T05:49:24.625Z,84.16
2023-01-09T05:54:25.324Z,85.19
2023-01-09T05:59:26.048Z,85.25
2023-01-09T06:04:29.911Z,85.81
2023-01-09T06:09:30.865Z,84.79
2023-01-09T06:14:31.624Z,85.09
2023-01-09T06:19:33.720Z,84.36
2023-01-09T06:24:34.398Z,84.45
2023-01-09T06:29:35.070Z,83.68
2023-01-09T06:34:37.068Z,84.03
2023-01-09T06:39:37.905Z,83.17
2023-01-09T06:44:38.585Z,83.48
2023-01-09T06:49:43.653Z,82.38
2023-01-09T06:54:44.302Z,82.77
2023-01-09T06:59:44.943Z,81.87
2023-01-09T07:04:47.023Z,81.32
2023-01-09T07:09:47.693Z,81.45
2023-01-09T07:14:48.317Z,80.73
2023-01-09T07:19:50.302Z,81.87
2023-01-09T07:24:50.989Z,81.06
2023-01-09T07:29:53.409Z,81.31
2023-01-09T07:34:55.450Z,81.24
2023-01-09T07:39:56.333Z,80.49
2023-01-09T07:44:57.055Z,80.93
2023-01-09T07:49:59.061Z,79.74
2023-01-09T07:54:59.756Z,79.79
2023-01-09T08:00:03.331Z,80.78
2023-01-09T08:05:15.925Z,80.25
2023-01-09T08:10:19.626Z,79.19
2023-01-09T08:15:20.369Z,78.99
2023-01-09T08:20:22.463Z,78.01
2023-01-09T08:25:23.205Z,78.26
2023-01-09T08:30:25.917Z,77.53
2023-01-09T08:35:27.995Z,77.00
2023-01-09T08:40:28.875Z,76.93
2023-01-09T08:45:47.416Z,78.14
2023-01-09T08:50:49.543Z,77.67
2023-01-09T08:55:51.340Z,77.45
2023-01-09T09:00:51.984Z,77.56
2023-01-09T09:05:54.063Z,77.63
2023-01-09T09:10:54.716Z,76.38
2023-01-09T09:15:55.393Z,75.82
2023-01-09T09:20:57.403Z,76.62
2023-01-09T09:25:58.165Z,76.78
2023-01-09T09:30:58.901Z,76.95
2023-01-09T09:36:01.298Z,76.18
2023-01-09T09:41:35.096Z,75.85
2023-01-09T09:46:43.339Z,75.33
2023-01-09T09:51:54.143Z,75.93
2023-01-09T09:56:58.945Z,76.43
2023-01-09T10:02:03.322Z,76.73
2023-01-09T10:07:09.619Z,75.68
2023-01-09T10:12:25.428Z,75.06
2023-01-09T10:17:40.320Z,74.82
2023-01-09T10:22:52.094Z,74.15
2023-01-09T10:28:07.956Z,74.85
2023-01-09T10:33:24.001Z,75.45
2023-01-09T10:38:32.401Z,76.52
2023-01-09T10:43:40.075Z,78.36
2023-01-09T10:48:45.653Z,80.89
2023-01-09T10:53:51.831Z,83.00
2023-01-09T10:58:53.879Z,82.91
2023-01-09T11:03:54.612Z,82.81
2023-01-09T11:09:00.110Z,82.78
2023-01-09T11:14:15.956Z,80.62
2023-01-09T11:19:16.610Z,79.58
2023-01-09T11:24:31.588Z,78.80
2023-01-09T11:29:35.042Z,77.30
2023-01-09T11:34:39.085Z,76.17
2023-01-09T11:39:48.035Z,74.14
2023-01-09T11:44:48.887Z,72.47
2023-01-09T11:49:51.300Z,71.78
2023-01-09T11:54:58.595Z,70.08
2023-01-09T12:00:03.222Z,70.27
2023-01-09T12:05:20.165Z,68.86
2023-01-09T12:10:42.276Z,68.24
2023-01-09T12:15:58.464Z,67.85
2023-01-09T12:21:17.869Z,67.73
2023-01-09T12:26:24.833Z,67.52
2023-01-09T12:31:37.654Z,67.69
2023-01-09T12:36:47.580Z,67.39
2023-01-09T12:42:18.457Z,67.78
2023-01-09T12:47:44.458Z,68.92
2023-01-09T12:52:54.464Z,68.62
2023-01-09T12:58:01.500Z,68.82
2023-01-09T13:03:13.100Z,68.96
2023-01-09T13:08:20.855Z,68.88
2023-01-09T13:13:27.458Z,67.37
2023-01-09T13:18:34.425Z,67.29
2023-01-09T13:23:44.872Z,67.08
2023-01-09T13:28:50.189Z,67.41
2023-01-09T13:33:54.887Z,67.34
2023-01-09T13:38:57.277Z,66.95
2023-01-09T13:44:02.268Z,67.20
2023-01-09T13:49:03.725Z,67.15
2023-01-09T13:54:04.632Z,66.79
2023-01-09T13:59:27.816Z,67.05
2023-01-09T14:04:44.502Z,67.44
2023-01-09T14:09:49.909Z,67.31
2023-01-09T14:14:54.215Z,67.08
2023-01-09T14:19:57.798Z,67.16
2023-01-09T14:25:05.378Z,67.07
2023-01-09T14:30:31.441Z,67.44
2023-01-09T14:35:46.468Z,67.56
2023-01-09T14:40:51.677Z,67.53
2023-01-09T14:45:57.997Z,68.25
2023-01-09T14:51:00.063Z,67.23
2023-01-09T14:56:05.967Z,67.97
2023-01-09T15:01:15.298Z,66.93
2023-01-09T15:06:20.825Z,67.94
2023-01-09T15:11:21.593Z,67.30
2023-01-09T15:16:26.084Z,68.18
2023-01-09T15:21:30.840Z,68.59
2023-01-09T15:26:32.069Z,68.73
2023-01-09T15:31:34.279Z,69.57
2023-01-09T15:36:39.872Z,69.65
2023-01-09T15:41:58.074Z,69.82
2023-01-09T15:47:01.852Z,69.07
2023-01-09T15:52:04.536Z,69.22
2023-01-09T15:57:30.216Z,69.44
2023-01-09T16:02:49.675Z,68.36
2023-01-09T16:07:52.142Z,68.95
2023-01-09T16:12:54.632Z,70.94
2023-01-09T16:18:21.357Z,72.55
2023-01-09T16:23:23.915Z,70.51
2023-01-09T16:28:30.576Z,70.42
2023-01-09T16:33:33.101Z,71.66
2023-01-09T16:38:34.568Z,73.41
2023-01-09T16:43:35.272Z,73.78
2023-01-09T16:48:39.393Z,73.46
2023-01-09T16:53:40.067Z,71.72
2023-01-09T16:58:40.749Z,71.58
2023-01-09T17:03:44.247Z,72.25
2023-01-09T17:08:45.242Z,72.69
2023-01-09T17:13:46.957Z,73.37
2023-01-09T17:18:49.049Z,73.90
2023-01-09T17:24:10.991Z,73.48
2023-01-09T17:29:11.703Z,72.69
2023-01-09T17:34:13.698Z,72.91
2023-01-09T17:39:15.213Z,72.94
2023-01-09T17:44:15.878Z,74.56
2023-01-09T17:49:20.591Z,73.97
2023-01-09T17:54:21.493Z,74.03
2023-01-09T17:59:22.245Z,74.92
2023-01-09T18:04:24.266Z,75.02
2023-01-09T18:09:24.949Z,75.39
2023-01-09T18:14:25.657Z,75.79
2023-01-09T18:19:27.689Z,75.63
2023-01-09T18:24:28.424Z,75.59
2023-01-09T18:29:29.132Z,74.56
2023-01-09T18:34:31.283Z,73.94
2023-01-09T18:39:32.006Z,74.09
2023-01-09T18:44:32.724Z,74.13
2023-01-09T18:49:34.747Z,74.09
2023-01-09T18:54:35.530Z,72.52
2023-01-09T18:59:36.283Z,73.40
2023-01-09T19:04:38.300Z,72.33
2023-01-09T19:09:39.065Z,71.32
2023-01-09T19:14:40.077Z,71.23
2023-01-09T19:19:42.257Z,71.77
2023-01-09T19:24:43.022Z,71.92
2023-01-09T19:29:43.698Z,72.13
2023-01-09T19:34:45.713Z,71.98
2023-01-09T19:39:46.988Z,71.27
2023-01-09T19:44:47.744Z,72.32
2023-01-09T19:49:50.114Z,71.62
2023-01-09T19:54:50.899Z,72.04
2023-01-09T19:59:51.708Z,71.74
2023-01-09T20:04:53.845Z,72.01
2023-01-09T20:09:54.562Z,71.92
2023-01-09T20:14:55.287Z,71.31
2023-01-09T20:19:57.314Z,71.51
2023-01-09T20:24:58.018Z,71.59
2023-01-09T20:30:00.709Z,72.02
2023-01-09T20:35:03.824Z,71.74
2023-01-09T20:40:05.544Z,72.26
2023-01-09T20:45:07.649Z,72.61
2023-01-09T20:50:11.126Z,72.56
2023-01-09T20:55:12.136Z,73.15
2023-01-09T21:00:14.018Z,72.49
2023-01-09T21:05:16.149Z,72.29
2023-01-09T21:10:17.389Z,72.58
2023-01-09T21:15:19.801Z,72.96
2023-01-09T21:20:22.301Z,72.85
2023-01-09T21:25:23.117Z,71.98
2023-01-09T21:30:23.793Z,71.61
2023-01-09T21:35:26.976Z,70.87
2023-01-09T21:40:27.717Z,71.66
2023-01-09T21:45:46.249Z,72.35
2023-01-09T21:50:48.405Z,71.21
2023-01-09T21:55:49.244Z,71.10
2023-01-09T22:00:50.622Z,71.09
2023-01-09T22:05:52.705Z,69.81
2023-01-09T22:10:59.852Z,69.01
2023-01-09T22:16:04.180Z,68.82
2023-01-09T22:21:06.495Z,69.31
2023-01-09T22:26:10.743Z,69.47
2023-01-09T22:31:12.055Z,70.57
2023-01-09T22:36:14.128Z,70.77
2023-01-09T22:41:15.145Z,71.16
2023-01-09T22:46:15.981Z,70.64
2023-01-09T22:51:21.443Z,70.84
2023-01-09T22:56:23.378Z,70.94
2023-01-09T23:01:24.028Z,70.75
2023-01-09T23:06:26.233Z,70.98
2023-01-09T23:11:49.042Z,71.74
2023-01-09T23:16:49.856Z,72.38
2023-01-09T23:21:51.886Z,71.81
2023-01-09T23:26:52.583Z,71.75
2023-01-09T23:31:54.008Z,72.18
2023-01-09T23:36:57.406Z,71.98
2023-01-09T23:42:16.070Z,71.91
2023-01-09T23:47:16.756Z,71.98
2023-01-09T23:52:18.727Z,71.41
2023-01-09T23:57:20.925Z,71.38
